Time;durP1;ratioP1;P1;durP2;ratioP2;P2;SDS_P1;SDS_P2;PMS_P1;PMS_P2;Temp;Humidity;BMP_temperature;BMP_pressure;BME280_temperature;BME280_humidity;BME280_pressure;Samples;Min_cycle;Max_cycle;Signal;HPM_P1;HPM_P2
2022/05/09 00:00:22;;;;;;;4.07;2.33;;;;;;;10.70;74.06;102414.22;5024056;28;20140;-68
2022/05/09 00:02:48;;;;;;;5.03;2.50;;;;;;;10.70;74.02;102422.81;5023886;28;20041;-68
2022/05/09 00:05:17;;;;;;;7.70;3.22;;;;;;;10.67;73.79;102414.44;5025602;28;20064;-68
2022/05/09 00:07:44;;;;;;;6.75;3.25;;;;;;;10.65;73.94;102411.94;5043277;28;20075;-68
2022/05/09 00:10:12;;;;;;;6.22;2.50;;;;;;;10.63;73.82;102411.25;5027207;28;20025;-68
2022/05/09 00:12:37;;;;;;;7.13;2.72;;;;;;;10.60;73.87;102397.69;5025228;28;20051;-68
2022/05/09 00:15:04;;;;;;;12.35;3.00;;;;;;;10.57;74.13;102403.09;5023465;28;20038;-68
2022/05/09 00:17:30;;;;;;;9.95;3.40;;;;;;;10.52;74.35;102409.44;5025635;28;20033;-68
2022/05/09 00:19:55;;;;;;;8.25;2.78;;;;;;;10.46;74.57;102402.16;5026113;28;20068;-68
2022/05/09 00:22:22;;;;;;;7.43;3.38;;;;;;;10.41;74.95;102406.03;5025212;28;20417;-68
2022/05/09 00:24:47;;;;;;;13.05;3.17;;;;;;;10.36;75.24;102402.94;5026979;28;20029;-68
2022/05/09 00:27:13;;;;;;;9.15;3.10;;;;;;;10.32;75.12;102405.78;5025679;28;20121;-68
2022/05/09 00:29:38;;;;;;;8.05;2.83;;;;;;;10.30;75.33;102401.63;5029345;28;20041;-67
2022/05/09 00:32:04;;;;;;;9.77;3.03;;;;;;;10.28;75.30;102399.16;5026902;28;20041;-68
2022/05/09 00:34:30;;;;;;;7.88;3.10;;;;;;;10.26;75.58;102398.41;5028544;28;20152;-68
2022/05/09 00:36:57;;;;;;;7.13;3.03;;;;;;;10.25;75.29;102398.56;5027419;28;20052;-68
2022/05/09 00:39:23;;;;;;;10.15;3.13;;;;;;;10.23;75.23;102396.06;5029701;28;20116;-68
2022/05/09 00:41:49;;;;;;;14.10;3.50;;;;;;;10.20;75.59;102391.09;5028427;28;20744;-68
2022/05/09 00:44:25;;;;;;;9.02;2.50;;;;;;;10.19;75.53;102399.00;5040478;28;20057;-68
2022/05/09 00:46:53;;;;;;;5.18;2.92;;;;;;;10.16;75.83;102389.69;5025623;28;20091;-68
2022/05/09 00:49:29;;;;;;;6.97;3.13;;;;;;;10.12;75.83;102390.88;5008431;28;20129;-68
2022/05/09 00:52:07;;;;;;;8.32;3.33;;;;;;;10.07;75.81;102392.97;5041592;28;20091;-68
2022/05/09 00:54:43;;;;;;;12.18;4.07;;;;;;;10.03;75.96;102397.53;5022094;28;20120;-68
2022/05/09 00:57:18;;;;;;;5.40;2.80;;;;;;;10.00;76.40;102394.34;5027846;28;20617;-68
2022/05/09 01:02:19;;;;;;;8.38;3.28;;;;;;;9.93;76.57;102394.00;5027590;28;20470;-67
2022/05/09 01:04:54;;;;;;;6.47;3.65;;;;;;;9.91;76.53;102390.69;5027366;28;20035;-68
2022/05/09 01:07:21;;;;;;;7.90;3.05;;;;;;;9.89;76.55;102387.41;5029028;28;21601;-68
2022/05/09 01:09:47;;;;;;;7.95;3.17;;;;;;;9.86;76.68;102391.00;5044085;28;20041;-68
2022/05/09 01:12:17;;;;;;;7.82;3.22;;;;;;;9.84;76.78;102385.13;5009585;28;20033;-68
2022/05/09 01:14:43;;;;;;;21.38;3.47;;;;;;;9.83;76.68;102387.81;5029086;28;20055;-68
2022/05/09 01:17:09;;;;;;;6.30;2.75;;;;;;;9.78;76.54;102385.56;5030214;28;20024;-68
2022/05/09 01:19:38;;;;;;;8.52;3.30;;;;;;;9.77;76.55;102389.09;5013123;28;20041;-68
2022/05/09 01:22:28;;;;;;;12.00;3.47;;;;;;;9.75;76.97;102385.78;5014255;28;20120;-68
2022/05/09 01:24:56;;;;;;;7.85;3.13;;;;;;;9.71;76.67;102386.97;5009107;28;20139;-68
2022/05/09 01:27:22;;;;;;;4.93;2.83;;;;;;;9.70;76.68;102387.88;5025299;28;20033;-68
2022/05/09 01:30:03;;;;;;;11.93;4.15;;;;;;;9.64;76.72;102389.16;5032489;28;20044;-68
2022/05/09 01:32:36;;;;;;;7.78;3.47;;;;;;;9.63;76.69;102387.50;5026741;28;20041;-68
2022/05/09 01:35:16;;;;;;;6.45;3.35;;;;;;;9.63;76.78;102384.94;5012174;28;20162;-67
2022/05/09 01:37:45;;;;;;;7.25;3.55;;;;;;;9.63;76.64;102379.75;5012431;28;20048;-68
2022/05/09 01:40:11;;;;;;;7.35;3.72;;;;;;;9.65;76.50;102372.69;5027386;28;20577;-68
2022/05/09 01:42:39;;;;;;;9.48;3.65;;;;;;;9.65;76.28;102370.09;5026223;28;20075;-68
2022/05/09 01:45:06;;;;;;;8.27;3.72;;;;;;;9.65;76.22;102374.47;5010872;28;20037;-68
2022/05/09 01:50:16;;;;;;;10.48;3.63;;;;;;;9.65;76.06;102369.28;5025840;28;20031;-68
2022/05/09 01:52:41;;;;;;;5.50;3.08;;;;;;;9.63;76.10;102371.16;4992139;28;20052;-68
2022/05/09 01:55:07;;;;;;;6.47;3.30;;;;;;;9.61;76.22;102367.84;5028394;28;20044;-67
2022/05/09 01:57:32;;;;;;;10.88;3.95;;;;;;;9.60;76.14;102371.38;5026713;28;20063;-68
2022/05/09 01:59:58;;;;;;;7.32;3.45;;;;;;;9.58;76.24;102371.47;5029547;28;20037;-67
2022/05/09 02:02:24;;;;;;;10.80;3.88;;;;;;;9.57;76.34;102374.16;5011762;28;20087;-67
2022/05/09 02:04:49;;;;;;;7.90;3.35;;;;;;;9.55;76.53;102369.94;5012632;28;20033;-67
2022/05/09 02:07:17;;;;;;;5.25;2.80;;;;;;;9.54;76.62;102376.03;5028275;28;20041;-68
2022/05/09 02:09:44;;;;;;;10.85;3.85;;;;;;;9.52;76.77;102370.16;5013268;28;20119;-68
2022/05/09 02:12:11;;;;;;;8.38;4.15;;;;;;;9.48;76.59;102362.72;5030729;28;20033;-68
2022/05/09 02:14:37;;;;;;;11.38;3.60;;;;;;;9.42;77.07;102371.78;5007264;28;20049;-67
2022/05/09 02:17:05;;;;;;;14.18;3.60;;;;;;;9.40;77.21;102365.88;5006438;28;20159;-68
2022/05/09 02:19:30;;;;;;;7.18;3.10;;;;;;;9.38;77.27;102369.50;5030436;28;20034;-68
2022/05/09 02:21:56;;;;;;;7.70;3.45;;;;;;;9.33;77.46;102364.66;5012878;28;20399;-67
2022/05/09 02:24:22;;;;;;;10.02;3.60;;;;;;;9.31;77.55;102374.28;5006763;28;20119;-67
2022/05/09 02:26:48;;;;;;;6.85;3.25;;;;;;;9.28;77.77;102372.72;5026470;28;20060;-68
2022/05/09 02:29:14;;;;;;;8.45;4.10;;;;;;;9.25;77.47;102372.13;5023828;28;20037;-68
2022/05/09 02:31:39;;;;;;;12.10;3.45;;;;;;;9.22;77.87;102364.59;5008830;28;20036;-68
2022/05/09 02:34:05;;;;;;;9.90;3.75;;;;;;;9.18;77.85;102360.56;5006943;28;21441;-67
2022/05/09 02:36:30;;;;;;;8.02;3.65;;;;;;;9.14;77.73;102365.97;5026190;28;20037;-68
2022/05/09 02:38:55;;;;;;;10.48;4.03;;;;;;;9.11;78.19;102365.34;5005420;28;20087;-68
2022/05/09 02:41:22;;;;;;;11.27;3.75;;;;;;;9.07;78.04;102364.72;5006614;28;20518;-68
2022/05/09 02:43:48;;;;;;;7.50;3.75;;;;;;;9.03;78.17;102360.72;5002813;28;20781;-68
2022/05/09 02:46:13;;;;;;;10.18;4.30;;;;;;;9.01;78.20;102366.94;5006118;28;20033;-68
2022/05/09 02:48:39;;;;;;;10.45;4.05;;;;;;;8.96;78.51;102356.91;5005689;28;20091;-68
2022/05/09 02:51:06;;;;;;;9.32;4.15;;;;;;;8.93;78.42;102368.28;5021854;28;20084;-68
2022/05/09 02:53:33;;;;;;;11.20;4.43;;;;;;;8.91;78.54;102366.72;5004415;28;20064;-68
2022/05/09 02:55:58;;;;;;;9.90;3.83;;;;;;;8.88;78.71;102370.38;5020582;28;20322;-67
2022/05/09 02:58:23;;;;;;;7.72;3.92;;;;;;;8.85;78.66;102367.16;5006968;28;20037;-67
2022/05/09 03:00:50;;;;;;;11.63;4.32;;;;;;;8.83;78.79;102366.44;5026852;28;20029;-68
2022/05/09 03:06:00;;;;;;;8.52;4.15;;;;;;;8.75;78.60;102362.63;5006201;28;20083;-68
2022/05/09 03:08:26;;;;;;;10.13;4.07;;;;;;;8.74;78.65;102363.56;5023929;28;20038;-67
2022/05/09 03:10:51;;;;;;;9.90;4.00;;;;;;;8.67;78.89;102367.50;5006446;28;20037;-68
2022/05/09 03:13:17;;;;;;;13.13;4.20;;;;;;;8.64;79.13;102362.53;5002920;28;20029;-68
2022/05/09 03:15:47;;;;;;;9.45;4.20;;;;;;;8.62;79.26;102356.63;5021595;28;20033;-68
2022/05/09 03:18:14;;;;;;;10.13;4.43;;;;;;;8.61;79.20;102355.00;5001303;28;20099;-68
2022/05/09 03:20:40;;;;;;;12.10;5.20;;;;;;;8.59;79.00;102354.28;5003841;28;20042;-68
2022/05/09 03:23:07;;;;;;;10.40;4.63;;;;;;;8.57;79.08;102356.16;5022292;28;20396;-68
2022/05/09 03:25:35;;;;;;;12.85;4.65;;;;;;;8.53;79.21;102349.50;5020780;28;20045;-67
2022/05/09 03:28:24;;;;;;;10.55;4.78;;;;;;;8.49;79.59;102348.06;5018902;28;20029;-68
2022/05/09 03:30:56;;;;;;;10.48;4.63;;;;;;;8.45;79.37;102347.44;5021260;28;20057;-68
2022/05/09 03:33:24;;;;;;;10.38;4.00;;;;;;;8.44;79.48;102350.13;5023629;28;20057;-68
2022/05/09 03:35:52;;;;;;;8.57;4.72;;;;;;;8.41;79.57;102345.16;5022036;28;20100;-67
2022/05/09 03:38:18;;;;;;;10.90;4.55;;;;;;;8.39;79.51;102342.69;5003124;28;20063;-68
2022/05/09 03:40:43;;;;;;;12.60;4.93;;;;;;;8.35;79.70;102346.41;5006684;28;20057;-68
2022/05/09 03:43:10;;;;;;;14.20;5.22;;;;;;;8.34;79.92;102349.91;5005856;28;20037;-68
2022/05/09 03:45:38;;;;;;;11.07;4.85;;;;;;;8.31;79.82;102356.13;5019451;28;20041;-67
2022/05/09 03:48:04;;;;;;;12.73;4.57;;;;;;;8.28;80.10;102355.50;5021815;28;20029;-67
2022/05/09 03:50:30;;;;;;;13.63;4.68;;;;;;;8.25;80.35;102356.53;5000346;28;20040;-68
2022/05/09 03:52:55;;;;;;;13.68;6.13;;;;;;;8.18;80.63;102350.94;5021737;28;20487;-68
2022/05/09 03:55:21;;;;;;;15.15;4.97;;;;;;;8.15;81.12;102355.47;5005594;28;20029;-67
2022/05/09 03:57:52;;;;;;;10.02;5.05;;;;;;;8.12;81.40;102355.69;5021192;28;20073;-67
2022/05/09 04:00:21;;;;;;;13.25;4.57;;;;;;;8.10;81.71;102354.94;5004026;28;20558;-68
2022/05/09 04:02:47;;;;;;;18.23;5.22;;;;;;;8.11;81.47;102354.03;5032947;28;20058;-68
2022/05/09 04:05:17;;;;;;;9.50;4.57;;;;;;;8.10;81.52;102355.81;5003541;28;20945;-68
2022/05/09 04:07:52;;;;;;;12.50;4.97;;;;;;;8.09;81.29;102351.53;5019212;28;20723;-68
2022/05/09 04:10:22;;;;;;;15.02;6.10;;;;;;;8.08;81.51;102352.50;5020316;28;20444;-68
2022/05/09 04:12:47;;;;;;;10.32;5.68;;;;;;;8.06;81.52;102359.53;5020211;28;20033;-67
2022/05/09 04:17:57;;;;;;;14.10;5.57;;;;;;;8.03;81.61;102354.53;5020236;28;20044;-67
2022/05/09 04:20:24;;;;;;;11.82;5.53;;;;;;;8.01;82.01;102353.00;5021135;28;20388;-68
2022/05/09 04:22:51;;;;;;;9.82;5.18;;;;;;;8.01;82.02;102353.00;5005966;28;20617;-68
2022/05/09 04:25:19;;;;;;;11.98;5.43;;;;;;;8.02;81.94;102357.22;5009586;28;20033;-67
2022/05/09 04:27:44;;;;;;;17.33;5.50;;;;;;;8.05;81.83;102357.03;5023307;28;20076;-68
2022/05/09 04:30:11;;;;;;;14.30;5.40;;;;;;;8.05;81.76;102354.44;5010269;28;20128;-68
2022/05/09 04:32:38;;;;;;;10.82;6.05;;;;;;;8.05;81.94;102360.44;5011060;28;20045;-68
2022/05/09 04:35:04;;;;;;;12.55;6.00;;;;;;;8.06;81.80;102350.91;5012065;28;20087;-68
2022/05/09 04:37:29;;;;;;;13.20;5.88;;;;;;;7.99;82.53;102353.09;5005837;28;20041;-67
2022/05/09 04:39:55;;;;;;;19.35;6.32;;;;;;;7.94;83.11;102347.41;5004903;28;20033;-67
2022/05/09 04:42:21;;;;;;;15.70;5.97;;;;;;;7.92;83.56;102357.00;5007910;28;20033;-67
2022/05/09 04:44:47;;;;;;;11.82;5.63;;;;;;;7.86;84.11;102355.66;5011727;28;20041;-67
2022/05/09 04:47:13;;;;;;;12.90;6.75;;;;;;;7.85;84.47;102361.72;5008409;28;20029;-67
2022/05/09 04:49:39;;;;;;;15.80;6.70;;;;;;;7.84;84.84;102360.09;5006899;28;20200;-68
2022/05/09 04:52:05;;;;;;;10.98;6.05;;;;;;;7.87;84.93;102348.72;5024222;28;20053;-67
2022/05/09 04:54:31;;;;;;;15.68;6.15;;;;;;;7.91;84.69;102352.75;5022891;28;20045;-67
2022/05/09 04:56:57;;;;;;;14.18;6.57;;;;;;;7.95;84.69;102352.47;5005367;28;20059;-67
2022/05/09 04:59:23;;;;;;;14.02;5.68;;;;;;;7.98;84.87;102347.09;5021092;28;20523;-67
2022/05/09 05:01:49;;;;;;;11.00;6.72;;;;;;;8.03;85.13;102349.38;5024438;28;20053;-67
2022/05/09 05:04:17;;;;;;;17.20;5.88;;;;;;;8.09;84.97;102350.72;5021891;28;20029;-67
2022/05/09 05:06:46;;;;;;;17.90;6.78;;;;;;;8.16;84.79;102354.56;5023039;28;20047;-67
2022/05/09 05:09:11;;;;;;;12.60;6.22;;;;;;;8.22;84.85;102353.31;5023445;28;20033;-67
2022/05/09 05:11:37;;;;;;;18.60;7.00;;;;;;;8.30;84.75;102353.63;5004173;28;20029;-67
2022/05/09 05:14:03;;;;;;;14.18;7.28;;;;;;;8.37;84.90;102353.13;5023390;28;20540;-67
2022/05/09 05:19:17;;;;;;;15.77;6.07;;;;;;;8.47;84.22;102348.16;5022927;28;20045;-67
2022/05/09 05:21:43;;;;;;;11.25;5.90;;;;;;;8.52;84.06;102355.63;5025240;28;20038;-67
2022/05/09 05:24:09;;;;;;;19.92;6.03;;;;;;;8.55;83.94;102351.09;5006927;28;20034;-67
2022/05/09 05:26:34;;;;;;;14.32;5.68;;;;;;;8.61;83.95;102359.31;5023675;28;20025;-67
2022/05/09 05:29:00;;;;;;;15.43;7.15;;;;;;;8.65;84.49;102359.03;5022829;28;20037;-67
2022/05/09 05:31:25;;;;;;;24.67;7.85;;;;;;;8.69;84.65;102351.88;5024574;28;20087;-67
2022/05/09 05:33:51;;;;;;;14.90;5.93;;;;;;;8.76;84.62;102355.72;5018738;28;20514;-67
2022/05/09 05:36:18;;;;;;;11.60;6.22;;;;;;;8.82;84.34;102363.03;5005667;28;20026;-67
2022/05/09 05:38:44;;;;;;;18.00;6.30;;;;;;;8.88;83.81;102357.44;5021830;28;20033;-68
2022/05/09 05:41:10;;;;;;;13.60;6.65;;;;;;;8.95;82.43;102361.25;5005823;28;20044;-67
2022/05/09 05:43:35;;;;;;;16.33;7.18;;;;;;;9.02;81.13;102348.69;5022214;28;20038;-68
2022/05/09 05:46:01;;;;;;;19.83;6.60;;;;;;;9.14;80.08;102358.19;5023520;28;20036;-67
2022/05/09 05:48:27;;;;;;;12.93;6.40;;;;;;;9.35;79.55;102361.00;5023489;28;20171;-67
2022/05/09 05:50:52;;;;;;;23.52;6.93;;;;;;;9.71;78.24;102358.47;5005449;28;20076;-67
2022/05/09 05:53:19;;;;;;;13.02;6.45;;;;;;;10.07;76.82;102360.09;5023106;28;20037;-67
2022/05/09 05:55:45;;;;;;;11.45;5.60;;;;;;;10.48;75.19;102360.53;5007665;28;20040;-67
2022/05/09 05:58:10;;;;;;;21.15;6.20;;;;;;;10.94;73.95;102358.75;5023798;28;20037;-68
2022/05/09 06:00:36;;;;;;;15.30;6.47;;;;;;;11.29;72.72;102359.38;5021276;28;20021;-67
2022/05/09 06:03:02;;;;;;;15.93;6.80;;;;;;;11.69;71.63;102356.13;5022304;28;20759;-67
2022/05/09 06:05:28;;;;;;;20.88;7.30;;;;;;;12.03;67.76;102353.38;5021913;28;20051;-67
2022/05/09 06:07:55;;;;;;;11.45;5.93;;;;;;;12.38;66.84;102354.81;5022589;28;20531;-68
2022/05/09 06:10:22;;;;;;;16.13;6.22;;;;;;;12.64;64.99;102354.38;5006080;28;20038;-67
2022/05/09 06:12:48;;;;;;;18.17;6.15;;;;;;;12.93;64.87;102357.06;5026545;28;20064;-67
2022/05/09 06:15:34;;;;;;;22.25;6.43;;;;;;;13.18;64.03;102357.50;5005761;28;20044;-67
2022/05/09 06:18:05;;;;;;;14.68;5.53;;;;;;;13.35;62.58;102351.66;5021954;28;20119;-67
2022/05/09 06:20:32;;;;;;;15.02;6.60;;;;;;;13.64;62.91;102353.47;5006264;28;20447;-67
2022/05/09 06:22:59;;;;;;;15.52;5.90;;;;;;;13.81;62.69;102357.16;5018755;28;20056;-67
2022/05/09 06:25:26;;;;;;;13.88;6.05;;;;;;;14.01;63.16;102353.53;5023563;28;20037;-68
2022/05/09 06:27:53;;;;;;;12.13;4.80;;;;;;;14.14;60.28;102349.78;5004234;28;20040;-67
2022/05/09 06:30:21;;;;;;;13.93;5.25;;;;;;;14.23;60.17;102355.94;5024240;28;20037;-68
2022/05/09 06:32:47;;;;;;;18.40;6.68;;;;;;;14.31;60.53;102353.44;5023157;28;20032;-68
2022/05/09 06:35:18;;;;;;;21.70;5.13;;;;;;;14.41;58.56;102351.63;5003503;28;20041;-67
2022/05/09 06:37:44;;;;;;;17.92;4.85;;;;;;;14.35;58.39;102349.56;5004067;28;20113;-67
2022/05/09 06:40:10;;;;;;;9.90;4.90;;;;;;;14.43;58.24;102352.31;5024601;28;20823;-67
2022/05/09 06:42:36;;;;;;;21.48;7.85;;;;;;;14.60;57.91;102348.97;5004886;28;20044;-67
2022/05/09 06:45:02;;;;;;;10.60;5.10;;;;;;;14.68;58.28;102347.41;5019520;28;20033;-67
2022/05/09 06:47:28;;;;;;;14.95;5.50;;;;;;;14.69;57.34;102346.44;5004684;28;20503;-68
2022/05/09 06:49:58;;;;;;;12.98;4.65;;;;;;;14.76;57.84;102352.72;5004188;28;20092;-68
2022/05/09 06:52:24;;;;;;;12.40;4.55;;;;;;;14.96;56.88;102351.66;5024532;28;20083;-68
2022/05/09 06:54:49;;;;;;;14.60;5.30;;;;;;;15.19;56.87;102354.63;5021310;28;20038;-68
2022/05/09 06:57:14;;;;;;;11.82;4.80;;;;;;;15.67;56.02;102349.16;5022057;28;20033;-68
2022/05/09 06:59:42;;;;;;;12.52;5.18;;;;;;;16.01;55.56;102349.28;5006028;28;21235;-68
2022/05/09 07:02:13;;;;;;;18.40;5.15;;;;;;;16.27;55.16;102338.78;5033472;22;20048;-68
2022/05/09 07:04:39;;;;;;;9.77;5.38;;;;;;;16.79;54.07;102337.03;5026244;28;20033;-67
2022/05/09 07:07:05;;;;;;;16.52;5.53;;;;;;;17.13;53.21;102334.31;5024518;28;20494;-68
2022/05/09 07:09:30;;;;;;;15.15;4.88;;;;;;;17.43;51.63;102337.28;5005750;28;20048;-68
2022/05/09 07:11:56;;;;;;;10.85;4.22;;;;;;;17.22;50.56;102327.31;5017479;28;20033;-67
2022/05/09 07:14:22;;;;;;;9.57;3.88;;;;;;;17.83;51.25;102325.94;5033842;28;20037;-68
2022/05/09 07:16:47;;;;;;;11.00;4.68;;;;;;;17.70;50.55;102325.63;5035994;28;20121;-68
2022/05/09 07:19:14;;;;;;;12.43;4.70;;;;;;;17.88;50.86;102323.66;5017904;28;20049;-68
2022/05/09 07:21:40;;;;;;;12.23;3.85;;;;;;;18.20;49.52;102321.94;5025775;28;20033;-68
2022/05/09 07:24:06;;;;;;;7.50;4.13;;;;;;;18.40;49.53;102316.25;5004999;28;20486;-67
2022/05/09 07:26:33;;;;;;;11.25;4.05;;;;;;;18.39;49.83;102312.03;5023470;28;20503;-67
2022/05/09 07:28:59;;;;;;;17.58;3.63;;;;;;;18.67;49.28;102315.00;5019826;28;20037;-68
2022/05/09 07:31:25;;;;;;;10.45;3.95;;;;;;;18.41;49.02;102321.34;5021794;28;20029;-67
2022/05/09 07:33:51;;;;;;;8.65;3.85;;;;;;;19.05;47.81;102323.00;5021216;28;20025;-68
2022/05/09 07:36:17;;;;;;;5.70;3.45;;;;;;;19.49;47.17;102313.59;5008798;28;20033;-67
2022/05/09 07:38:43;;;;;;;9.30;3.20;;;;;;;19.76;47.08;102320.09;5020117;28;20033;-68
2022/05/09 07:41:08;;;;;;;7.22;3.30;;;;;;;20.10;46.93;102324.84;5023164;28;20037;-67
2022/05/09 07:43:34;;;;;;;11.10;3.35;;;;;;;20.38;45.72;102322.34;5021649;28;20044;-68
2022/05/09 07:46:00;;;;;;;10.50;3.65;;;;;;;20.06;45.70;102334.09;5024530;28;20030;-68
2022/05/09 07:48:29;;;;;;;7.57;3.17;;;;;;;20.40;45.23;102317.72;5023245;28;20061;-67
2022/05/09 07:50:56;;;;;;;10.52;3.13;;;;;;;20.68;45.99;102316.22;5024646;28;20046;-68
2022/05/09 07:53:31;;;;;;;8.00;3.30;;;;;;;20.75;44.52;102306.56;5023401;28;20132;-68
2022/05/09 07:56:00;;;;;;;9.15;3.92;;;;;;;20.46;44.28;102308.25;5028037;28;20037;-68
2022/05/09 07:58:26;;;;;;;9.40;3.10;;;;;;;20.91;45.38;102302.88;5025117;28;20069;-67
2022/05/09 08:00:58;;;;;;;9.38;2.55;;;;;;;20.88;45.05;102297.97;5024764;28;20088;-68
2022/05/09 08:03:24;;;;;;;5.75;2.63;;;;;;;21.45;44.47;102304.97;5027613;28;20132;-67
2022/05/09 08:05:58;;;;;;;12.52;2.83;;;;;;;21.72;44.72;102311.25;5026162;28;20076;-68
2022/05/09 08:08:24;;;;;;;5.82;2.85;;;;;;;22.00;43.26;102315.69;5023469;28;20041;-68
2022/05/09 08:10:49;;;;;;;7.00;2.75;;;;;;;21.46;42.76;102311.88;5019242;28;20044;-68
2022/05/09 08:13:18;;;;;;;8.40;2.88;;;;;;;21.39;43.92;102305.72;5022465;28;20033;-68
2022/05/09 08:15:46;;;;;;;9.88;2.60;;;;;;;21.59;43.37;102305.88;5040140;28;20403;-68
2022/05/09 08:18:13;;;;;;;7.47;2.90;;;;;;;21.83;43.02;102295.88;5026555;28;20045;-68
2022/05/09 08:20:40;;;;;;;7.18;2.50;;;;;;;22.22;43.62;102295.22;5022356;28;20041;-68
2022/05/09 08:23:09;;;;;;;9.05;2.60;;;;;;;22.32;42.97;102305.44;5023675;28;20048;-67
2022/05/09 08:25:36;;;;;;;8.73;2.47;;;;;;;22.80;42.12;102294.81;5024976;28;20076;-68
2022/05/09 08:28:04;;;;;;;7.75;2.60;;;;;;;22.88;41.81;102301.72;5026312;28;20074;-68
2022/05/09 08:30:33;;;;;;;5.80;1.90;;;;;;;23.03;41.81;102301.53;5025273;28;20076;-69
2022/05/09 08:33:04;;;;;;;13.02;3.50;;;;;;;22.97;39.93;102302.34;5023859;28;20029;-67
2022/05/09 08:35:30;;;;;;;10.02;2.50;;;;;;;23.20;41.04;102294.84;5022021;28;20087;-67
2022/05/09 08:37:55;;;;;;;9.13;2.90;;;;;;;22.65;41.89;102287.06;5022544;28;20440;-66
2022/05/09 08:40:37;;;;;;;10.75;2.70;;;;;;;22.46;41.56;102290.47;5016316;28;20115;-67
2022/05/09 08:43:17;;;;;;;11.77;3.47;;;;;;;22.82;42.50;102286.69;5035078;28;20490;-67
2022/05/09 08:45:52;;;;;;;7.40;2.75;;;;;;;22.77;41.90;102289.09;5006069;28;20087;-67
2022/05/09 08:48:26;;;;;;;9.98;2.70;;;;;;;23.01;41.59;102293.81;5025239;28;20514;-67
2022/05/09 08:51:05;;;;;;;6.65;2.78;;;;;;;23.28;40.69;102291.19;5019735;28;20061;-67
2022/05/09 08:53:35;;;;;;;8.45;3.28;;;;;;;23.44;41.54;102290.75;5021337;28;20033;-67
2022/05/09 08:56:01;;;;;;;11.43;2.97;;;;;;;23.49;41.03;102298.91;5023177;28;20040;-67
2022/05/09 08:58:39;;;;;;;6.82;2.78;;;;;;;24.02;40.55;102292.69;5021917;28;20034;-67
2022/05/09 09:01:32;;;;;;;13.18;3.55;;;;;;;24.06;39.78;102293.88;5020770;28;20140;-67
2022/05/09 09:04:01;;;;;;;5.25;3.08;;;;;;;24.11;40.34;102293.25;5022815;28;20391;-67
2022/05/09 09:06:38;;;;;;;8.23;3.22;;;;;;;24.14;40.64;102294.66;5021240;28;20052;-67
2022/05/09 09:09:28;;;;;;;16.13;4.05;;;;;;;24.09;41.37;102287.34;5022122;28;20079;-68
2022/05/09 09:12:17;;;;;;;7.47;2.90;;;;;;;24.07;41.12;102284.09;5023139;28;20183;-68
2022/05/09 09:15:05;;;;;;;7.95;3.15;;;;;;;24.04;40.43;102287.19;5022367;28;20519;-67
2022/05/09 09:17:56;;;;;;;9.80;3.03;;;;;;;24.40;41.31;102283.94;5022075;28;20044;-67
2022/05/09 09:20:32;;;;;;;6.57;3.38;;;;;;;24.52;40.00;102283.28;5022149;28;20043;-67
2022/05/09 09:23:16;;;;;;;7.32;3.30;;;;;;;24.65;39.80;102277.88;5023409;28;20557;-67
2022/05/09 09:25:59;;;;;;;7.72;3.00;;;;;;;24.61;41.42;102282.81;5021300;28;20113;-67
2022/05/09 09:28:49;;;;;;;21.25;5.47;;;;;;;24.74;40.55;102279.25;5037234;28;20557;-67
2022/05/09 09:32:13;;;;;;;11.27;4.47;;;;;;;24.52;42.11;102275.34;5025176;28;20061;-66
2022/05/09 09:34:46;;;;;;;8.10;4.07;;;;;;;24.70;40.40;102279.91;5011381;28;20041;-68
2022/05/09 09:37:21;;;;;;;12.88;4.50;;;;;;;24.60;40.12;102278.53;5023400;28;20076;-67
2022/05/09 09:39:46;;;;;;;7.70;3.55;;;;;;;24.82;41.45;102270.22;5023375;28;20801;-67
2022/05/09 09:42:12;;;;;;;10.32;3.17;;;;;;;24.61;41.01;102274.06;5017776;28;20052;-66
2022/05/09 09:44:43;;;;;;;8.93;3.50;;;;;;;24.74;40.53;102263.34;5017151;28;20052;-67
2022/05/09 09:47:21;;;;;;;7.28;3.10;;;;;;;24.94;40.33;102271.16;5023156;28;20581;-67
2022/05/09 09:49:50;;;;;;;11.50;4.10;;;;;;;24.73;41.86;102266.22;5021236;28;20037;-67
2022/05/09 09:52:21;;;;;;;9.02;4.15;;;;;;;25.11;40.06;102267.94;5019961;28;20484;-67
2022/05/09 09:55:00;;;;;;;8.05;4.18;;;;;;;24.92;41.16;102269.72;5021708;28;20820;-67
2022/05/09 09:57:32;;;;;;;8.75;3.58;;;;;;;25.09;40.47;102262.03;5023211;28;20618;-67
2022/05/09 10:00:15;;;;;;;9.87;4.40;;;;;;;24.80;41.57;102251.88;5021446;28;20071;-67
2022/05/09 10:02:40;;;;;;;13.23;4.68;;;;;;;25.05;41.13;102259.84;5022142;28;20029;-67
2022/05/09 10:05:12;;;;;;;7.50;4.15;;;;;;;24.93;41.00;102250.16;5018885;28;20033;-67
2022/05/09 10:07:43;;;;;;;30.65;5.30;;;;;;;24.67;42.73;102250.13;5018820;28;20032;-67
2022/05/09 10:10:12;;;;;;;9.45;4.13;;;;;;;24.73;41.88;102243.16;5036391;28;20075;-67
2022/05/09 10:12:48;;;;;;;9.73;4.57;;;;;;;24.82;41.51;102243.69;5015421;28;20033;-67
2022/05/09 10:15:20;;;;;;;9.25;3.90;;;;;;;24.97;40.37;102240.72;5021914;28;20044;-67
2022/05/09 10:17:46;;;;;;;10.00;4.68;;;;;;;24.95;40.73;102242.78;5018011;28;20041;-67
2022/05/09 10:20:41;;;;;;;15.60;5.28;;;;;;;25.01;41.64;102237.41;5019638;28;20046;-67
2022/05/09 10:26:21;;;;;;;11.23;4.45;;;;;;;25.28;42.11;102231.88;5036716;28;20033;-67
2022/05/09 10:28:56;;;;;;;12.60;4.80;;;;;;;25.54;39.85;102228.16;5018937;28;20124;-67
2022/05/09 10:31:30;;;;;;;11.02;4.35;;;;;;;25.49;40.21;102233.28;5016619;28;20045;-67
2022/05/09 10:34:05;;;;;;;7.93;4.40;;;;;;;24.96;41.23;102224.00;5021143;28;20087;-67
2022/05/09 10:36:39;;;;;;;14.70;5.97;;;;;;;25.01;41.64;102229.44;5003752;28;20044;-67
2022/05/09 10:39:17;;;;;;;6.68;4.22;;;;;;;25.02;40.60;102217.81;5023302;28;20040;-67
2022/05/09 10:41:55;;;;;;;9.23;3.97;;;;;;;24.92;41.20;102225.47;5018205;28;20052;-68
2022/05/09 10:44:34;;;;;;;8.90;4.22;;;;;;;25.03;43.14;102219.44;5023070;28;20039;-67
2022/05/09 10:47:26;;;;;;;8.15;4.13;;;;;;;25.28;41.47;102215.97;5023605;28;20569;-67
2022/05/09 10:50:04;;;;;;;11.43;4.82;;;;;;;25.10;42.27;102210.59;5021511;28;20137;-67
2022/05/09 10:52:51;;;;;;;10.63;3.92;;;;;;;25.26;41.25;102210.06;5018591;28;20041;-67
2022/05/09 10:55:55;;;;;;;9.98;4.53;;;;;;;25.58;41.39;102202.75;5018848;28;20116;-67
2022/05/09 10:58:35;;;;;;;7.72;4.57;;;;;;;25.56;40.93;102199.53;4999481;28;20045;-67
2022/05/09 11:01:19;;;;;;;8.07;4.18;;;;;;;25.25;41.64;102197.81;5021033;28;20109;-67
2022/05/09 11:03:46;;;;;;;8.60;4.47;;;;;;;25.09;42.12;102199.19;5002416;28;21914;-68
2022/05/09 11:06:17;;;;;;;11.70;4.70;;;;;;;25.20;42.45;102192.31;5023694;28;20037;-67
2022/05/09 11:08:55;;;;;;;13.40;4.90;;;;;;;25.35;41.76;102192.00;5005892;28;20041;-67
2022/05/09 11:11:40;;;;;;;14.93;4.72;;;;;;;25.52;41.62;102186.91;5021904;28;20061;-67
2022/05/09 11:14:38;;;;;;;11.80;5.00;;;;;;;25.50;40.99;102183.66;5021458;28;20555;-67
2022/05/09 11:17:40;;;;;;;10.02;4.07;;;;;;;25.68;41.21;102178.31;5019579;28;20033;-68
2022/05/09 11:20:17;;;;;;;9.50;4.43;;;;;;;25.82;40.16;102171.81;5021063;28;20040;-67
2022/05/09 11:23:25;;;;;;;10.02;4.20;;;;;;;25.48;39.93;102169.78;5019528;28;20025;-67
2022/05/09 11:25:54;;;;;;;7.65;4.32;;;;;;;25.69;41.47;102171.16;5020840;28;20033;-67
2022/05/09 11:28:53;;;;;;;6.15;3.70;;;;;;;25.98;40.44;102162.41;5034239;28;20077;-67
2022/05/09 11:31:33;;;;;;;9.50;4.88;;;;;;;25.96;40.50;102164.50;5024475;28;20475;-67
2022/05/09 11:34:20;;;;;;;12.65;4.82;;;;;;;26.01;39.35;102156.66;5019972;28;20072;-68
2022/05/09 11:37:23;;;;;;;9.27;4.30;;;;;;;26.05;40.20;102159.69;5026675;28;20099;-67
2022/05/09 11:40:28;;;;;;;8.25;4.50;;;;;;;26.33;38.88;102150.22;5025990;28;20395;-68
2022/05/09 11:43:29;;;;;;;9.20;4.45;;;;;;;26.21;39.15;102145.72;5013552;28;20056;-68
2022/05/09 11:46:16;;;;;;;13.00;4.95;;;;;;;26.25;38.98;102142.59;4988879;28;20045;-67
2022/05/09 11:49:06;;;;;;;6.70;4.10;;;;;;;26.22;40.22;102128.75;5024910;28;20064;-67
2022/05/09 11:51:31;;;;;;;10.13;4.95;;;;;;;26.40;39.17;102129.66;5036290;28;20061;-68
2022/05/09 11:54:01;;;;;;;10.73;4.90;;;;;;;25.75;39.42;102141.03;5024981;28;20562;-68
2022/05/09 11:56:30;;;;;;;10.88;5.38;;;;;;;25.54;39.39;102137.03;5036184;28;20464;-67